메인 페이지
METAR-TAF:

METAR-TAF

공항 :

산타크루스, 리우데자네이루, 브라질

위도: 22-56S, 경도: 043-43W, 고도: 3m

현재 날씨관측

예보는 37분 전, 23:00시(UTC)에 발표되었습니다.
5kt
온도 21°C
습도 88%
기압 1018 hPa
시정 10km 이상
고도 1200ft 상공 구름 많음
고도 2000ft 상공 흐림

METAR: SBSC 022300Z 18005KT 9999 BKN012 OVC020 21/19 Q1018

시각: 20:37 (23:37 UTC)

예보

예보는 8 시간 37분 전, 15:00시(UTC)에 발표되었습니다.
예보 대상 시간: 02일 18시부터 03일 06시까지 (UTC)
남남서7kt
시정 10km 이상
고도 2000ft 상공 구름 보통
고도 3000ft 상공 구름 많음
일시적
02일 20시부터 03일 06시까지 (UTC)
시정: 6000m
고도 800ft 상공 구름 많음
고도 3000ft 상공 구름 많음

TAF: SBSC 021500Z 0218/0306 21007KT 9999 SCT020 BKN030 TX24/0218Z TN21/0306Z TEMPO 0220/0306 6000 RA BKN008 BKN030 RMK PEL

4,000개 이상의 공항 관측 자료 및 예보 (METAR 및 TAF 보고).

지도상에서 검색 가능한 기상관측소가 노란 점과 빨간 점으로 표시되어 있습니다.

기상관측소 명을 보려면 표시 위로 마우스를 이동하세요.

날씨 관측과 예보를 보려면 클릭하세요.

지도 변경 : 확대하려면 엑스 표시가 있는 녹색 버튼, 축소하려면 빼기 표시가 있는 녹색 버튼, 다음 페이지의 지도를 보려면 녹색 화살표를 클릭하세요.


METAR-TAF: